sensor_id;sensor_type;location;lat;lon;timestamp;pressure;altitude;pressure_sealevel;temperature;humidity
4858;BME280;58975;51.978;8.472;2023-07-13T00:04:52;100178.19;;;14.83;100.00
4858;BME280;58975;51.978;8.472;2023-07-13T00:09:49;100174.22;;;14.87;100.00
4858;BME280;58975;51.978;8.472;2023-07-13T00:14:45;100175.16;;;14.78;100.00
4858;BME280;58975;51.978;8.472;2023-07-13T00:19:42;100190.72;;;14.56;100.00
4858;BME280;58975;51.978;8.472;2023-07-13T00:24:38;100184.88;;;14.43;100.00
4858;BME280;58975;51.978;8.472;2023-07-13T00:29:38;100186.91;;;14.41;100.00
4858;BME280;58975;51.978;8.472;2023-07-13T00:34:34;100188.94;;;14.47;100.00
4858;BME280;58975;51.978;8.472;2023-07-13T00:39:31;100199.53;;;14.49;100.00
4858;BME280;58975;51.978;8.472;2023-07-13T00:44:27;100195.00;;;14.49;100.00
4858;BME280;58975;51.978;8.472;2023-07-13T00:49:27;100189.78;;;14.48;100.00
4858;BME280;58975;51.978;8.472;2023-07-13T00:54:28;100179.84;;;14.40;100.00
4858;BME280;58975;51.978;8.472;2023-07-13T00:59:26;100191.44;;;14.13;100.00
4858;BME280;58975;51.978;8.472;2023-07-13T01:04:26;100194.78;;;13.98;100.00
4858;BME280;58975;51.978;8.472;2023-07-13T01:09:23;100190.50;;;14.05;100.00
4858;BME280;58975;51.978;8.472;2023-07-13T01:14:19;100190.97;;;14.18;100.00
4858;BME280;58975;51.978;8.472;2023-07-13T01:19:28;100186.69;;;14.35;100.00
4858;BME280;58975;51.978;8.472;2023-07-13T01:24:32;100186.66;;;14.52;100.00
4858;BME280;58975;51.978;8.472;2023-07-13T01:29:30;100195.16;;;14.65;100.00
4858;BME280;58975;51.978;8.472;2023-07-13T01:34:27;100188.00;;;14.74;100.00
4858;BME280;58975;51.978;8.472;2023-07-13T01:39:24;100185.41;;;14.82;100.00
4858;BME280;58975;51.978;8.472;2023-07-13T01:44:20;100185.63;;;14.89;100.00
4858;BME280;58975;51.978;8.472;2023-07-13T01:49:17;100190.03;;;14.98;100.00
4858;BME280;58975;51.978;8.472;2023-07-13T01:54:13;100189.25;;;15.05;100.00
4858;BME280;58975;51.978;8.472;2023-07-13T01:59:10;100188.25;;;15.06;100.00
4858;BME280;58975;51.978;8.472;2023-07-13T02:04:06;100185.16;;;15.19;100.00
4858;BME280;58975;51.978;8.472;2023-07-13T02:09:03;100188.38;;;15.23;100.00
4858;BME280;58975;51.978;8.472;2023-07-13T02:14:00;100192.28;;;15.28;100.00
4858;BME280;58975;51.978;8.472;2023-07-13T02:18:58;100191.06;;;15.23;100.00
4858;BME280;58975;51.978;8.472;2023-07-13T02:23:54;100196.94;;;15.26;100.00
4858;BME280;58975;51.978;8.472;2023-07-13T02:28:51;100198.56;;;15.19;100.00
4858;BME280;58975;51.978;8.472;2023-07-13T02:33:48;100195.25;;;14.99;100.00
4858;BME280;58975;51.978;8.472;2023-07-13T02:38:44;100192.44;;;14.83;100.00
4858;BME280;58975;51.978;8.472;2023-07-13T02:43:41;100189.81;;;14.65;100.00
4858;BME280;58975;51.978;8.472;2023-07-13T02:48:38;100187.50;;;14.53;100.00
4858;BME280;58975;51.978;8.472;2023-07-13T02:53:35;100193.94;;;14.42;100.00
4858;BME280;58975;51.978;8.472;2023-07-13T02:58:32;100194.28;;;14.30;100.00
4858;BME280;58975;51.978;8.472;2023-07-13T03:03:32;100199.69;;;14.20;100.00
4858;BME280;58975;51.978;8.472;2023-07-13T03:08:28;100203.00;;;14.14;100.00
4858;BME280;58975;51.978;8.472;2023-07-13T03:13:25;100202.28;;;14.12;100.00
4858;BME280;58975;51.978;8.472;2023-07-13T03:18:21;100208.56;;;14.20;100.00
4858;BME280;58975;51.978;8.472;2023-07-13T03:23:19;100209.34;;;14.13;100.00
4858;BME280;58975;51.978;8.472;2023-07-13T03:28:16;100215.75;;;14.02;100.00
4858;BME280;58975;51.978;8.472;2023-07-13T03:33:13;100215.09;;;13.91;100.00
4858;BME280;58975;51.978;8.472;2023-07-13T03:38:09;100211.50;;;13.82;100.00
4858;BME280;58975;51.978;8.472;2023-07-13T03:43:06;100225.84;;;13.81;100.00
4858;BME280;58975;51.978;8.472;2023-07-13T03:48:02;100236.00;;;13.78;100.00
4858;BME280;58975;51.978;8.472;2023-07-13T03:52:59;100237.19;;;13.65;100.00
4858;BME280;58975;51.978;8.472;2023-07-13T03:58:05;100241.56;;;13.66;100.00
4858;BME280;58975;51.978;8.472;2023-07-13T04:03:17;100245.31;;;13.73;100.00
4858;BME280;58975;51.978;8.472;2023-07-13T04:08:13;100248.53;;;13.87;100.00
4858;BME280;58975;51.978;8.472;2023-07-13T04:13:10;100251.75;;;13.90;100.00
4858;BME280;58975;51.978;8.472;2023-07-13T04:18:06;100247.34;;;13.99;100.00
4858;BME280;58975;51.978;8.472;2023-07-13T04:23:03;100257.09;;;13.90;100.00
4858;BME280;58975;51.978;8.472;2023-07-13T04:28:00;100264.41;;;13.88;100.00
4858;BME280;58975;51.978;8.472;2023-07-13T04:32:57;100263.31;;;13.91;100.00
4858;BME280;58975;51.978;8.472;2023-07-13T04:37:53;100263.75;;;14.13;100.00
4858;BME280;58975;51.978;8.472;2023-07-13T04:42:50;100260.63;;;14.18;100.00
4858;BME280;58975;51.978;8.472;2023-07-13T04:47:46;100262.38;;;14.27;100.00
4858;BME280;58975;51.978;8.472;2023-07-13T04:52:43;100263.47;;;14.34;100.00
4858;BME280;58975;51.978;8.472;2023-07-13T04:57:39;100261.59;;;14.44;100.00
4858;BME280;58975;51.978;8.472;2023-07-13T05:02:38;100257.41;;;14.59;100.00
4858;BME280;58975;51.978;8.472;2023-07-13T05:07:35;100260.88;;;14.70;100.00
4858;BME280;58975;51.978;8.472;2023-07-13T05:12:31;100265.28;;;14.79;100.00
4858;BME280;58975;51.978;8.472;2023-07-13T05:17:28;100266.91;;;14.89;100.00
4858;BME280;58975;51.978;8.472;2023-07-13T05:22:24;100270.41;;;15.07;100.00
4858;BME280;58975;51.978;8.472;2023-07-13T05:27:22;100277.69;;;15.15;100.00
4858;BME280;58975;51.978;8.472;2023-07-13T05:32:19;100278.00;;;15.38;100.00
4858;BME280;58975;51.978;8.472;2023-07-13T05:37:16;100280.59;;;15.47;100.00
4858;BME280;58975;51.978;8.472;2023-07-13T05:42:12;100294.88;;;15.48;100.00
4858;BME280;58975;51.978;8.472;2023-07-13T05:47:09;100294.97;;;15.56;100.00
4858;BME280;58975;51.978;8.472;2023-07-13T05:52:06;100297.53;;;15.66;100.00
4858;BME280;58975;51.978;8.472;2023-07-13T05:57:02;100301.53;;;15.87;100.00
4858;BME280;58975;51.978;8.472;2023-07-13T06:01:59;100303.38;;;15.87;100.00
4858;BME280;58975;51.978;8.472;2023-07-13T06:06:55;100307.94;;;15.94;100.00
4858;BME280;58975;51.978;8.472;2023-07-13T06:11:52;100306.84;;;16.13;100.00
4858;BME280;58975;51.978;8.472;2023-07-13T06:16:48;100305.88;;;16.22;100.00
4858;BME280;58975;51.978;8.472;2023-07-13T06:21:45;100306.63;;;16.40;100.00
4858;BME280;58975;51.978;8.472;2023-07-13T06:26:41;100309.81;;;16.02;100.00
4858;BME280;58975;51.978;8.472;2023-07-13T06:31:38;100311.25;;;16.22;100.00
4858;BME280;58975;51.978;8.472;2023-07-13T06:36:35;100319.06;;;16.41;100.00
4858;BME280;58975;51.978;8.472;2023-07-13T06:41:33;100316.84;;;16.37;100.00
4858;BME280;58975;51.978;8.472;2023-07-13T06:46:30;100307.94;;;16.36;100.00
4858;BME280;58975;51.978;8.472;2023-07-13T06:51:26;100322.66;;;16.66;100.00
4858;BME280;58975;51.978;8.472;2023-07-13T06:56:23;100320.50;;;16.62;100.00
4858;BME280;58975;51.978;8.472;2023-07-13T07:01:19;100314.88;;;17.05;100.00
4858;BME280;58975;51.978;8.472;2023-07-13T07:06:18;100322.25;;;17.11;100.00
4858;BME280;58975;51.978;8.472;2023-07-13T07:11:20;100330.69;;;17.24;100.00
4858;BME280;58975;51.978;8.472;2023-07-13T07:16:19;100333.69;;;17.21;100.00
4858;BME280;58975;51.978;8.472;2023-07-13T07:21:16;100334.03;;;17.50;100.00
4858;BME280;58975;51.978;8.472;2023-07-13T07:26:13;100332.53;;;17.16;100.00
4858;BME280;58975;51.978;8.472;2023-07-13T07:31:10;100332.66;;;17.06;100.00
4858;BME280;58975;51.978;8.472;2023-07-13T07:36:09;100326.78;;;17.51;100.00
4858;BME280;58975;51.978;8.472;2023-07-13T07:41:09;100328.22;;;18.10;100.00
4858;BME280;58975;51.978;8.472;2023-07-13T07:46:08;100327.47;;;18.32;100.00
4858;BME280;58975;51.978;8.472;2023-07-13T07:51:06;100328.47;;;17.68;100.00
4858;BME280;58975;51.978;8.472;2023-07-13T07:56:03;100330.00;;;17.79;100.00
4858;BME280;58975;51.978;8.472;2023-07-13T08:01:20;100335.75;;;17.68;100.00
4858;BME280;58975;51.978;8.472;2023-07-13T08:06:19;100329.34;;;18.24;100.00
4858;BME280;58975;51.978;8.472;2023-07-13T08:11:20;100321.06;;;18.33;100.00
4858;BME280;58975;51.978;8.472;2023-07-13T08:16:21;100329.06;;;18.50;100.00
4858;BME280;58975;51.978;8.472;2023-07-13T08:21:18;100336.47;;;19.09;100.00
4858;BME280;58975;51.978;8.472;2023-07-13T08:26:18;100341.88;;;18.48;100.00
4858;BME280;58975;51.978;8.472;2023-07-13T08:31:14;100338.69;;;19.06;100.00
4858;BME280;58975;51.978;8.472;2023-07-13T08:36:12;100348.22;;;19.47;100.00
4858;BME280;58975;51.978;8.472;2023-07-13T08:41:14;100343.66;;;18.94;100.00
4858;BME280;58975;51.978;8.472;2023-07-13T08:46:24;100336.50;;;19.32;100.00
4858;BME280;58975;51.978;8.472;2023-07-13T08:51:44;100349.28;;;18.62;100.00
4858;BME280;58975;51.978;8.472;2023-07-13T08:56:44;100347.41;;;19.16;100.00
4858;BME280;58975;51.978;8.472;2023-07-13T09:13:11;100346.69;;;19.22;100.00
4858;BME280;58975;51.978;8.472;2023-07-13T09:18:21;100339.75;;;19.50;100.00
4858;BME280;58975;51.978;8.472;2023-07-13T09:23:23;100336.34;;;19.71;100.00
4858;BME280;58975;51.978;8.472;2023-07-13T09:28:23;100332.56;;;20.09;100.00
4858;BME280;58975;51.978;8.472;2023-07-13T09:33:21;100331.09;;;20.36;100.00
4858;BME280;58975;51.978;8.472;2023-07-13T09:38:22;100338.88;;;19.87;100.00
4858;BME280;58975;51.978;8.472;2023-07-13T09:43:20;100339.53;;;19.89;100.00
4858;BME280;58975;51.978;8.472;2023-07-13T09:48:17;100338.81;;;19.58;100.00
4858;BME280;58975;51.978;8.472;2023-07-13T09:53:16;100346.19;;;20.45;100.00
4858;BME280;58975;51.978;8.472;2023-07-13T09:58:21;100351.41;;;20.32;100.00
4858;BME280;58975;51.978;8.472;2023-07-13T10:03:24;100344.47;;;20.00;100.00
4858;BME280;58975;51.978;8.472;2023-07-13T10:08:27;100346.00;;;20.97;100.00
4858;BME280;58975;51.978;8.472;2023-07-13T10:13:27;100347.13;;;20.88;100.00
4858;BME280;58975;51.978;8.472;2023-07-13T10:18:25;100348.31;;;20.06;100.00
4858;BME280;58975;51.978;8.472;2023-07-13T10:23:25;100351.69;;;20.52;100.00
4858;BME280;58975;51.978;8.472;2023-07-13T10:28:37;100363.50;;;20.51;100.00
4858;BME280;58975;51.978;8.472;2023-07-13T10:33:34;100360.84;;;21.22;100.00
4858;BME280;58975;51.978;8.472;2023-07-13T10:38:31;100361.22;;;20.84;100.00
4858;BME280;58975;51.978;8.472;2023-07-13T10:43:33;100359.56;;;21.18;100.00
4858;BME280;58975;51.978;8.472;2023-07-13T10:48:34;100370.78;;;21.37;100.00
4858;BME280;58975;51.978;8.472;2023-07-13T10:53:37;100367.63;;;21.12;100.00
4858;BME280;58975;51.978;8.472;2023-07-13T10:58:41;100373.50;;;20.36;100.00
4858;BME280;58975;51.978;8.472;2023-07-13T11:03:55;100371.94;;;20.41;100.00
4858;BME280;58975;51.978;8.472;2023-07-13T11:08:58;100373.19;;;21.10;100.00
4858;BME280;58975;51.978;8.472;2023-07-13T11:13:58;100368.91;;;20.80;100.00
4858;BME280;58975;51.978;8.472;2023-07-13T11:24:14;100360.53;;;20.96;100.00
4858;BME280;58975;51.978;8.472;2023-07-13T11:34:34;100364.50;;;21.57;100.00
4858;BME280;58975;51.978;8.472;2023-07-13T11:39:35;100371.13;;;21.27;100.00
4858;BME280;58975;51.978;8.472;2023-07-13T11:44:34;100359.84;;;21.09;100.00
4858;BME280;58975;51.978;8.472;2023-07-13T11:49:31;100368.69;;;21.17;100.00
4858;BME280;58975;51.978;8.472;2023-07-13T11:54:47;100366.25;;;21.65;100.00
4858;BME280;58975;51.978;8.472;2023-07-13T11:59:47;100364.56;;;21.00;100.00
4858;BME280;58975;51.978;8.472;2023-07-13T12:04:44;100361.63;;;21.59;100.00
4858;BME280;58975;51.978;8.472;2023-07-13T12:09:41;100364.44;;;21.08;100.00
4858;BME280;58975;51.978;8.472;2023-07-13T12:14:38;100363.38;;;21.73;98.10
4858;BME280;58975;51.978;8.472;2023-07-13T12:19:35;100348.25;;;22.06;85.88
4858;BME280;58975;51.978;8.472;2023-07-13T12:24:31;100358.69;;;22.09;84.64
4858;BME280;58975;51.978;8.472;2023-07-13T12:29:32;100334.91;;;22.46;80.48
4858;BME280;58975;51.978;8.472;2023-07-13T12:34:29;100349.16;;;22.61;83.81
4858;BME280;58975;51.978;8.472;2023-07-13T12:39:32;100351.09;;;23.61;79.07
4858;BME280;58975;51.978;8.472;2023-07-13T12:44:31;100355.44;;;23.42;72.50
4858;BME280;58975;51.978;8.472;2023-07-13T12:49:31;100363.72;;;22.94;75.22
4858;BME280;58975;51.978;8.472;2023-07-13T12:54:31;100360.34;;;22.86;79.28
4858;BME280;58975;51.978;8.472;2023-07-13T12:59:30;100352.97;;;23.40;69.64
4858;BME280;58975;51.978;8.472;2023-07-13T13:04:30;100354.56;;;22.20;71.95
4858;BME280;58975;51.978;8.472;2023-07-13T13:09:26;100359.22;;;22.26;78.47
4858;BME280;58975;51.978;8.472;2023-07-13T13:14:23;100339.22;;;22.34;72.25
4858;BME280;58975;51.978;8.472;2023-07-13T13:19:25;100355.00;;;23.12;67.91
4858;BME280;58975;51.978;8.472;2023-07-13T13:24:24;100355.97;;;22.91;65.60
4858;BME280;58975;51.978;8.472;2023-07-13T13:29:22;100367.53;;;22.25;70.75
4858;BME280;58975;51.978;8.472;2023-07-13T13:34:22;100369.88;;;21.51;79.14
4858;BME280;58975;51.978;8.472;2023-07-13T13:39:35;100388.84;;;21.30;77.38
4858;BME280;58975;51.978;8.472;2023-07-13T13:44:33;100402.50;;;21.21;81.46
4858;BME280;58975;51.978;8.472;2023-07-13T13:49:30;100417.28;;;18.80;100.00
4858;BME280;58975;51.978;8.472;2023-07-13T13:54:26;100428.13;;;17.68;100.00
4858;BME280;58975;51.978;8.472;2023-07-13T13:59:23;100434.28;;;17.20;100.00
4858;BME280;58975;51.978;8.472;2023-07-13T14:04:21;100439.13;;;17.00;100.00
4858;BME280;58975;51.978;8.472;2023-07-13T14:09:19;100433.06;;;17.07;100.00
4858;BME280;58975;51.978;8.472;2023-07-13T14:14:19;100443.56;;;17.34;100.00
4858;BME280;58975;51.978;8.472;2023-07-13T14:19:16;100465.00;;;17.60;100.00
4858;BME280;58975;51.978;8.472;2023-07-13T14:24:13;100467.69;;;17.60;100.00
4858;BME280;58975;51.978;8.472;2023-07-13T14:29:13;100477.25;;;17.54;100.00
4858;BME280;58975;51.978;8.472;2023-07-13T14:34:11;100478.09;;;17.55;100.00
4858;BME280;58975;51.978;8.472;2023-07-13T14:39:16;100468.03;;;17.81;100.00
4858;BME280;58975;51.978;8.472;2023-07-13T14:44:15;100477.81;;;18.06;100.00
4858;BME280;58975;51.978;8.472;2023-07-13T14:49:14;100485.38;;;18.03;100.00
4858;BME280;58975;51.978;8.472;2023-07-13T14:54:11;100493.13;;;17.89;100.00
4858;BME280;58975;51.978;8.472;2023-07-13T14:59:08;100513.19;;;17.95;100.00
4858;BME280;58975;51.978;8.472;2023-07-13T15:04:05;100515.34;;;17.67;100.00
4858;BME280;58975;51.978;8.472;2023-07-13T15:09:02;100524.84;;;17.45;100.00
4858;BME280;58975;51.978;8.472;2023-07-13T15:14:00;100531.16;;;17.20;100.00
4858;BME280;58975;51.978;8.472;2023-07-13T15:18:57;100527.44;;;17.13;100.00
4858;BME280;58975;51.978;8.472;2023-07-13T15:23:55;100522.44;;;16.84;100.00
4858;BME280;58975;51.978;8.472;2023-07-13T15:28:51;100523.63;;;16.90;100.00
4858;BME280;58975;51.978;8.472;2023-07-13T15:33:50;100513.88;;;16.89;100.00
4858;BME280;58975;51.978;8.472;2023-07-13T15:38:48;100512.63;;;16.75;100.00
4858;BME280;58975;51.978;8.472;2023-07-13T15:43:48;100506.88;;;16.70;100.00
4858;BME280;58975;51.978;8.472;2023-07-13T15:48:45;100517.50;;;16.72;100.00
4858;BME280;58975;51.978;8.472;2023-07-13T15:53:42;100512.69;;;16.83;100.00
4858;BME280;58975;51.978;8.472;2023-07-13T15:58:38;100513.25;;;17.03;100.00
4858;BME280;58975;51.978;8.472;2023-07-13T16:03:35;100507.78;;;17.13;100.00
4858;BME280;58975;51.978;8.472;2023-07-13T16:08:32;100506.94;;;17.20;100.00
4858;BME280;58975;51.978;8.472;2023-07-13T16:13:29;100505.75;;;17.89;100.00
4858;BME280;58975;51.978;8.472;2023-07-13T16:18:25;100510.69;;;18.89;100.00
4858;BME280;58975;51.978;8.472;2023-07-13T16:23:23;100505.78;;;20.60;100.00
4858;BME280;58975;51.978;8.472;2023-07-13T16:28:19;100500.81;;;22.43;100.00
4858;BME280;58975;51.978;8.472;2023-07-13T16:33:18;100501.50;;;21.60;100.00
4858;BME280;58975;51.978;8.472;2023-07-13T16:38:20;100499.56;;;20.22;100.00
4858;BME280;58975;51.978;8.472;2023-07-13T16:43:18;100503.00;;;19.48;100.00
4858;BME280;58975;51.978;8.472;2023-07-13T16:48:21;100506.50;;;19.79;100.00
4858;BME280;58975;51.978;8.472;2023-07-13T16:53:21;100505.59;;;20.47;100.00
4858;BME280;58975;51.978;8.472;2023-07-13T16:58:19;100502.63;;;20.71;100.00
4858;BME280;58975;51.978;8.472;2023-07-13T17:03:18;100507.97;;;23.13;100.00
4858;BME280;58975;51.978;8.472;2023-07-13T17:08:23;100496.63;;;23.56;100.00
4858;BME280;58975;51.978;8.472;2023-07-13T17:13:21;100492.13;;;24.42;86.75
4858;BME280;58975;51.978;8.472;2023-07-13T17:18:20;100498.13;;;22.15;100.00
4858;BME280;58975;51.978;8.472;2023-07-13T17:23:25;100494.59;;;20.92;100.00
4858;BME280;58975;51.978;8.472;2023-07-13T17:28:23;100509.88;;;19.19;100.00
4858;BME280;58975;51.978;8.472;2023-07-13T17:33:27;100510.78;;;18.32;100.00
4858;BME280;58975;51.978;8.472;2023-07-13T17:38:39;100513.81;;;18.46;100.00
4858;BME280;58975;51.978;8.472;2023-07-13T17:43:37;100521.53;;;18.49;100.00
4858;BME280;58975;51.978;8.472;2023-07-13T17:48:34;100520.91;;;18.22;100.00
4858;BME280;58975;51.978;8.472;2023-07-13T17:53:32;100520.56;;;18.25;100.00
4858;BME280;58975;51.978;8.472;2023-07-13T17:58:30;100534.38;;;18.38;100.00
4858;BME280;58975;51.978;8.472;2023-07-13T18:03:27;100534.69;;;18.43;100.00
4858;BME280;58975;51.978;8.472;2023-07-13T18:08:31;100536.72;;;18.41;100.00
4858;BME280;58975;51.978;8.472;2023-07-13T18:13:29;100542.28;;;18.32;100.00
4858;BME280;58975;51.978;8.472;2023-07-13T18:18:33;100547.88;;;18.22;100.00
4858;BME280;58975;51.978;8.472;2023-07-13T18:23:30;100551.22;;;18.08;100.00
4858;BME280;58975;51.978;8.472;2023-07-13T18:28:29;100545.81;;;17.92;100.00
4858;BME280;58975;51.978;8.472;2023-07-13T18:33:29;100551.22;;;17.76;100.00
4858;BME280;58975;51.978;8.472;2023-07-13T18:38:27;100550.63;;;17.56;100.00
4858;BME280;58975;51.978;8.472;2023-07-13T18:43:24;100544.69;;;17.36;100.00
4858;BME280;58975;51.978;8.472;2023-07-13T18:48:23;100538.25;;;17.29;100.00
4858;BME280;58975;51.978;8.472;2023-07-13T18:53:21;100534.56;;;17.30;100.00
4858;BME280;58975;51.978;8.472;2023-07-13T18:58:17;100540.91;;;17.21;100.00
4858;BME280;58975;51.978;8.472;2023-07-13T19:03:19;100535.53;;;17.13;100.00
4858;BME280;58975;51.978;8.472;2023-07-13T19:08:22;100538.03;;;17.15;100.00
4858;BME280;58975;51.978;8.472;2023-07-13T19:13:24;100539.38;;;17.11;100.00
4858;BME280;58975;51.978;8.472;2023-07-13T19:18:22;100530.41;;;17.02;100.00
4858;BME280;58975;51.978;8.472;2023-07-13T19:23:38;100535.09;;;16.92;100.00
4858;BME280;58975;51.978;8.472;2023-07-13T19:28:37;100536.72;;;16.85;100.00
4858;BME280;58975;51.978;8.472;2023-07-13T19:33:35;100553.66;;;16.77;100.00
4858;BME280;58975;51.978;8.472;2023-07-13T19:38:32;100541.75;;;16.80;100.00
4858;BME280;58975;51.978;8.472;2023-07-13T19:43:29;100557.44;;;16.67;100.00
4858;BME280;58975;51.978;8.472;2023-07-13T19:48:25;100556.25;;;16.61;100.00
4858;BME280;58975;51.978;8.472;2023-07-13T19:53:23;100576.22;;;16.59;100.00
4858;BME280;58975;51.978;8.472;2023-07-13T19:58:20;100576.50;;;16.55;100.00
4858;BME280;58975;51.978;8.472;2023-07-13T20:03:16;100587.16;;;16.57;100.00
4858;BME280;58975;51.978;8.472;2023-07-13T20:08:18;100589.34;;;16.44;100.00
4858;BME280;58975;51.978;8.472;2023-07-13T20:13:17;100600.63;;;16.47;100.00
4858;BME280;58975;51.978;8.472;2023-07-13T20:18:17;100598.41;;;16.43;100.00
4858;BME280;58975;51.978;8.472;2023-07-13T20:23:15;100594.31;;;16.31;100.00
4858;BME280;58975;51.978;8.472;2023-07-13T20:28:12;100602.13;;;16.24;100.00
4858;BME280;58975;51.978;8.472;2023-07-13T20:33:13;100605.19;;;16.12;100.00
4858;BME280;58975;51.978;8.472;2023-07-13T20:38:15;100611.22;;;16.05;100.00
4858;BME280;58975;51.978;8.472;2023-07-13T20:43:12;100614.34;;;16.01;100.00
4858;BME280;58975;51.978;8.472;2023-07-13T20:48:26;100625.72;;;15.95;100.00
4858;BME280;58975;51.978;8.472;2023-07-13T20:53:24;100619.81;;;15.91;100.00
4858;BME280;58975;51.978;8.472;2023-07-13T20:58:21;100625.69;;;15.77;100.00
4858;BME280;58975;51.978;8.472;2023-07-13T21:03:24;100617.63;;;15.77;100.00
4858;BME280;58975;51.978;8.472;2023-07-13T21:08:24;100621.59;;;15.73;100.00
4858;BME280;58975;51.978;8.472;2023-07-13T21:13:20;100623.59;;;15.44;100.00
4858;BME280;58975;51.978;8.472;2023-07-13T21:18:21;100624.22;;;15.28;100.00
4858;BME280;58975;51.978;8.472;2023-07-13T21:23:25;100625.97;;;15.10;100.00
4858;BME280;58975;51.978;8.472;2023-07-13T21:28:23;100627.31;;;14.96;100.00
4858;BME280;58975;51.978;8.472;2023-07-13T21:33:21;100631.03;;;14.86;100.00
4858;BME280;58975;51.978;8.472;2023-07-13T21:38:25;100633.16;;;14.73;100.00
4858;BME280;58975;51.978;8.472;2023-07-13T21:43:22;100635.00;;;14.62;100.00
4858;BME280;58975;51.978;8.472;2023-07-13T21:48:19;100644.91;;;14.52;100.00
4858;BME280;58975;51.978;8.472;2023-07-13T21:53:31;100638.41;;;14.45;100.00
4858;BME280;58975;51.978;8.472;2023-07-13T21:58:31;100647.31;;;14.36;100.00
4858;BME280;58975;51.978;8.472;2023-07-13T22:03:29;100635.56;;;14.28;100.00
4858;BME280;58975;51.978;8.472;2023-07-13T22:08:30;100642.63;;;14.19;100.00
4858;BME280;58975;51.978;8.472;2023-07-13T22:13:28;100651.34;;;14.02;100.00
4858;BME280;58975;51.978;8.472;2023-07-13T22:18:26;100652.91;;;13.95;100.00
4858;BME280;58975;51.978;8.472;2023-07-13T22:23:37;100652.44;;;13.70;100.00
4858;BME280;58975;51.978;8.472;2023-07-13T22:28:33;100655.56;;;13.45;100.00
4858;BME280;58975;51.978;8.472;2023-07-13T22:33:30;100661.25;;;13.52;100.00
4858;BME280;58975;51.978;8.472;2023-07-13T22:38:30;100661.66;;;13.47;100.00
4858;BME280;58975;51.978;8.472;2023-07-13T22:43:28;100665.56;;;13.43;100.00
4858;BME280;58975;51.978;8.472;2023-07-13T22:48:27;100665.31;;;13.46;100.00
4858;BME280;58975;51.978;8.472;2023-07-13T22:53:27;100675.38;;;13.33;100.00
4858;BME280;58975;51.978;8.472;2023-07-13T22:58:25;100668.88;;;13.26;100.00
4858;BME280;58975;51.978;8.472;2023-07-13T23:03:23;100667.16;;;13.15;100.00
4858;BME280;58975;51.978;8.472;2023-07-13T23:08:20;100665.22;;;13.06;100.00
4858;BME280;58975;51.978;8.472;2023-07-13T23:13:17;100666.03;;;12.97;100.00
4858;BME280;58975;51.978;8.472;2023-07-13T23:18:17;100680.41;;;13.06;100.00
4858;BME280;58975;51.978;8.472;2023-07-13T23:23:16;100675.91;;;13.06;100.00
4858;BME280;58975;51.978;8.472;2023-07-13T23:28:14;100666.44;;;12.93;100.00
4858;BME280;58975;51.978;8.472;2023-07-13T23:38:10;100678.84;;;12.94;100.00
4858;BME280;58975;51.978;8.472;2023-07-13T23:43:07;100682.19;;;12.96;100.00
4858;BME280;58975;51.978;8.472;2023-07-13T23:48:04;100692.81;;;12.86;100.00
4858;BME280;58975;51.978;8.472;2023-07-13T23:53:04;100692.22;;;12.82;100.00
4858;BME280;58975;51.978;8.472;2023-07-13T23:58:02;100689.13;;;12.77;100.00
